• Join FlightAware (Why Join?)
  • Login
  • US Flag 
11:49AM EDT


 

Airport Tracker/Info


-or-


 

Live Flight TrackerFlight Track Log ✈ DAL6035 ✈ 21-Apr-2013 ✈ KLGA - KMHT

Flight Track Log - Related Links

Times and Time Zones

All times are in EDT time to prevent confusion due to time zone crossing. See the DAL6035 flight status page for this flight to view local times or setup timezone preferences in your user account.

Time Position Orientation Groundspeed Altitude Reporting Facility
EDT Latitude Longitude Course Direction KTS MPH feet Rate Location/Type
11:34AM 40.8000 -73.8667 33° Northeast 160 184 1,000  Level New York TRACON
11:35AM 40.8333 -73.8167 49° Northeast 200 230 3,000 2,220 Climbing New York TRACON
11:37AM 41.0265 -73.6597 28° Northeast  Level FlightAware Approximate
11:37AM 40.9242 -73.6956 45° Northeast 233 268 7,700  Level Boston Center
11:38AM 41.1159 -73.5958 28° Northeast  Level FlightAware Approximate
11:38AM 40.9689 -73.6139 54° Northeast 253 291 9,800  Level Boston Center
11:39AM 41.2016 -73.5236 33° Northeast  Level FlightAware Approximate
11:39AM 41.0317 -73.5711 27° Northeast 268 308 11,700  Level Boston Center
11:40AM 41.1156 -73.5256 22° Northeast 286 329 13,700 1,800 Climbing Boston Center
11:41AM 41.1869 -73.4828 24° Northeast 300 345 15,300 1,620 Climbing Boston Center
11:42AM 41.2811 -73.4289 23° Northeast 316 364 17,000 1,260 Climbing Boston Center
11:43AM 41.3628 -73.3831 23° Northeast 333 383 17,900 1,260 Climbing Boston Center
11:44AM 41.4633 -73.3264 23° Northeast 345 397 19,600 1,620 Climbing Boston Center
11:45AM 41.5431 -73.2444 38° Northeast 351 404 21,200 1,560 Climbing Boston Center
11:46AM 41.6392 -73.2261 North 336 387 22,800 1,740 Climbing Boston Center
11:47AM 41.7347 -73.2358 356° North 336 387 24,700 1,080 Climbing Boston Center
11:48AM 41.8328 -73.2453 356° North 331 381 25,000 120 Climbing Boston Center
11:49AM 41.9411 -73.2550 356° North 361 415 25,000  Level Boston Center
11:50AM 42.0578 -73.2650 356° North 395 455 25,000  Level Boston Center
11:51AM 42.1744 -73.2778 355° North 414 476 25,000 -60 Level Boston Center
11:52AM 42.2911 -73.2653 North 420 483 24,900 -900 Descending Boston Center
11:53AM 42.3961 -73.1569 37° Northeast 425 489 23,300 -1,680 Descending Boston Center
11:54AM 42.4803 -72.9806 57° Northeast 430 495 21,300 -1,080 Descending Boston Center
11:55AM 42.5478 -72.8347 58° Northeast 447 514 21,000 -540 Descending Boston Center
11:56AM 42.6128 -72.6911 58° Northeast 447 514 20,300 -1,140 Descending Boston Center
11:57AM 42.6714 -72.5672 57° Northeast 441 507 18,800 -1,440 Descending Boston Center
11:58AM 42.7339 -72.4289 58° Northeast 430 495 17,500 -1,620 Descending Boston Center
11:59AM 42.7900 -72.2986 60° Northeast 419 482 15,600 -2,040 Descending Boston Center
12:00PM 42.8044 -72.1486 82° East 368 423 13,500 -2,280 Descending Boston Center
12:01PM 42.7894 -72.0100 98° East 363 418 11,100 -1,800 Descending Boston Center
12:02PM 42.7722 -71.8828 100° East 362 417 10,000 -900 Descending Boston Center
12:03PM 42.7569 -71.7700 100° East 328 377 9,300 -1,440 Descending Boston Center
12:04PM 42.7519 -71.6681 94° East 281 323 7,200 -2,100 Descending Boston Center
12:05PM 42.7597 -71.5692 84° East 262 302 5,200 -1,860 Descending Boston Center
12:06PM 42.7694 -71.4786 82° East 251 289 3,500 -1,320 Descending Boston Center
12:07PM 42.7917 -71.3933 70° East 239 275 2,600 -600 Descending Boston Center
12:08PM 42.8311 -71.3728 21° North 161 185 2,400 -240 Descending Boston Center